Kenosha Regional Airport
KENW : now visible

Airfield :











YOU CAN JOIN US ON...

 
LOGIN :

Register | Disclaimer

   EN    FR    IT 

 









Legend :    VFR   Marginal VFR   IFR   Intensive IFR   Very Intensive IFR
Visi :
Ceiling :
>= 8 km
>= 3000ft
5 to 8 km
1000 to 3000 ft
1500m to 5 km
500 to 1000 ft
800 to 1500m
200 to 500 ft
< 800m
< 200 ft
Symbols :   Thunderstorms  Fog  Heavy snow  Heavy precipitations  Wind > 20 kt






- Airport Elevation : 742 ft


KENW - Kenosha Regional

CURRENT METAR :
  • 090053Z 16005KT 10SM CLR 29/21 A2990 RMK AO2 SLP118 T02890211

EXPIRED METARs :
  • 082353Z 14006KT 10SM CLR 29/22 A2989 RMK AO2 SLP115 T02940217 10328 20294 55002
  • 082253Z 15007KT 10SM CLR 31/22 A2987 RMK AO2 SLP110 T03110222

TAF KENW
Valid from the 09 at 00:00 until the 10 at 00:00 UTC


082342Z 0900/0924 16006KT P6SM BKN150
FM090400 18003KT P6SM FEW250
FM091500 18008KT P6SM FEW040 SCT200
FM092000 16009KT P6SM SCT040 BKN200
FM092300 18007KT 6SM -SHRA BR VCTS SCT040CB BKN150
KZAU FIR / North America



MET'MAP, your aeronautical weather chart ! - Copyright ORBIFLY December 2007 - Disclaimer

ORBIFLY MET'MAP TEAM :

Programming & Development : Alexandra Zaïnal
Concept & original design : Baudouin d'Aumeries
Assistance for programming : Marc-Olivier Méhu
Technical & hardware support : Manuel Goepfert

Contact : metmap@orbifly.com




SOURCES & CREDITS :

   NOAA       Earth
Advisory